sensor_id;sensor_type;location;lat;lon;timestamp;P1;durP1;ratioP1;P2;durP2;ratioP2
3959;SDS011;1994;48.640;8.894;2022-07-29T00:02:27;10.53;;;8.40;;
3959;SDS011;1994;48.640;8.894;2022-07-29T00:04:53;10.23;;;8.57;;
3959;SDS011;1994;48.640;8.894;2022-07-29T00:07:19;11.50;;;8.27;;
3959;SDS011;1994;48.640;8.894;2022-07-29T00:09:45;14.13;;;11.20;;
3959;SDS011;1994;48.640;8.894;2022-07-29T00:12:11;15.03;;;9.90;;
3959;SDS011;1994;48.640;8.894;2022-07-29T00:14:36;12.43;;;9.17;;
3959;SDS011;1994;48.640;8.894;2022-07-29T00:17:02;15.17;;;9.57;;
3959;SDS011;1994;48.640;8.894;2022-07-29T00:19:28;15.60;;;9.23;;
3959;SDS011;1994;48.640;8.894;2022-07-29T00:21:54;15.07;;;10.30;;
3959;SDS011;1994;48.640;8.894;2022-07-29T00:24:20;11.50;;;10.10;;
3959;SDS011;1994;48.640;8.894;2022-07-29T00:26:49;12.70;;;10.03;;
3959;SDS011;1994;48.640;8.894;2022-07-29T00:29:14;14.23;;;10.50;;
3959;SDS011;1994;48.640;8.894;2022-07-29T00:31:40;12.20;;;10.37;;
3959;SDS011;1994;48.640;8.894;2022-07-29T00:34:08;15.80;;;10.30;;
3959;SDS011;1994;48.640;8.894;2022-07-29T00:36:54;14.70;;;10.73;;
3959;SDS011;1994;48.640;8.894;2022-07-29T00:39:30;13.87;;;10.90;;
3959;SDS011;1994;48.640;8.894;2022-07-29T00:41:55;12.77;;;10.17;;
3959;SDS011;1994;48.640;8.894;2022-07-29T00:44:25;17.43;;;10.30;;
3959;SDS011;1994;48.640;8.894;2022-07-29T00:46:50;12.33;;;10.40;;
3959;SDS011;1994;48.640;8.894;2022-07-29T00:49:16;13.60;;;11.60;;
3959;SDS011;1994;48.640;8.894;2022-07-29T00:51:42;13.40;;;9.83;;
3959;SDS011;1994;48.640;8.894;2022-07-29T00:54:08;12.80;;;10.13;;
3959;SDS011;1994;48.640;8.894;2022-07-29T00:56:34;13.37;;;10.17;;
3959;SDS011;1994;48.640;8.894;2022-07-29T00:59:00;13.03;;;10.73;;
3959;SDS011;1994;48.640;8.894;2022-07-29T01:01:26;20.03;;;11.10;;
3959;SDS011;1994;48.640;8.894;2022-07-29T01:03:52;11.03;;;9.90;;
3959;SDS011;1994;48.640;8.894;2022-07-29T01:06:18;13.40;;;10.20;;
3959;SDS011;1994;48.640;8.894;2022-07-29T01:08:45;20.73;;;10.77;;
3959;SDS011;1994;48.640;8.894;2022-07-29T01:11:12;13.90;;;11.20;;
3959;SDS011;1994;48.640;8.894;2022-07-29T01:13:43;12.80;;;10.77;;
3959;SDS011;1994;48.640;8.894;2022-07-29T01:16:13;17.07;;;12.57;;
3959;SDS011;1994;48.640;8.894;2022-07-29T01:18:49;13.23;;;10.77;;
3959;SDS011;1994;48.640;8.894;2022-07-29T01:24:14;14.30;;;11.37;;
3959;SDS011;1994;48.640;8.894;2022-07-29T01:30:31;14.20;;;11.67;;
3959;SDS011;1994;48.640;8.894;2022-07-29T01:33:00;21.50;;;13.73;;
3959;SDS011;1994;48.640;8.894;2022-07-29T01:35:39;18.77;;;13.13;;
3959;SDS011;1994;48.640;8.894;2022-07-29T01:40:49;17.90;;;12.90;;
3959;SDS011;1994;48.640;8.894;2022-07-29T01:43:39;17.60;;;11.77;;
3959;SDS011;1994;48.640;8.894;2022-07-29T01:46:13;19.53;;;12.20;;
3959;SDS011;1994;48.640;8.894;2022-07-29T01:48:48;21.90;;;14.30;;
3959;SDS011;1994;48.640;8.894;2022-07-29T01:51:25;20.40;;;14.00;;
3959;SDS011;1994;48.640;8.894;2022-07-29T01:56:30;16.80;;;12.90;;
3959;SDS011;1994;48.640;8.894;2022-07-29T01:59:03;24.83;;;13.80;;
3959;SDS011;1994;48.640;8.894;2022-07-29T02:01:32;23.23;;;13.33;;
3959;SDS011;1994;48.640;8.894;2022-07-29T02:04:01;17.70;;;13.07;;
3959;SDS011;1994;48.640;8.894;2022-07-29T02:06:30;16.90;;;12.03;;
3959;SDS011;1994;48.640;8.894;2022-07-29T02:08:58;20.03;;;13.57;;
3959;SDS011;1994;48.640;8.894;2022-07-29T02:11:26;19.37;;;13.60;;
3959;SDS011;1994;48.640;8.894;2022-07-29T02:13:52;21.83;;;13.10;;
3959;SDS011;1994;48.640;8.894;2022-07-29T02:16:23;16.43;;;12.70;;
3959;SDS011;1994;48.640;8.894;2022-07-29T02:18:53;20.30;;;13.73;;
3959;SDS011;1994;48.640;8.894;2022-07-29T02:21:21;15.73;;;11.80;;
3959;SDS011;1994;48.640;8.894;2022-07-29T02:23:51;19.40;;;14.30;;
3959;SDS011;1994;48.640;8.894;2022-07-29T02:26:21;15.10;;;12.90;;
3959;SDS011;1994;48.640;8.894;2022-07-29T02:28:50;17.00;;;13.83;;
3959;SDS011;1994;48.640;8.894;2022-07-29T02:31:23;18.47;;;13.80;;
3959;SDS011;1994;48.640;8.894;2022-07-29T02:33:53;21.87;;;15.30;;
3959;SDS011;1994;48.640;8.894;2022-07-29T02:36:23;19.37;;;14.30;;
3959;SDS011;1994;48.640;8.894;2022-07-29T02:38:51;19.97;;;15.40;;
3959;SDS011;1994;48.640;8.894;2022-07-29T02:44:29;19.07;;;13.40;;
3959;SDS011;1994;48.640;8.894;2022-07-29T02:47:04;15.60;;;12.13;;
3959;SDS011;1994;48.640;8.894;2022-07-29T02:52:52;15.87;;;11.23;;
3959;SDS011;1994;48.640;8.894;2022-07-29T02:58:32;15.83;;;10.87;;
3959;SDS011;1994;48.640;8.894;2022-07-29T03:01:14;18.83;;;10.30;;
3959;SDS011;1994;48.640;8.894;2022-07-29T03:03:46;12.17;;;10.30;;
3959;SDS011;1994;48.640;8.894;2022-07-29T03:06:17;10.00;;;8.77;;
3959;SDS011;1994;48.640;8.894;2022-07-29T03:08:45;11.10;;;9.17;;
3959;SDS011;1994;48.640;8.894;2022-07-29T03:11:11;11.70;;;9.03;;
3959;SDS011;1994;48.640;8.894;2022-07-29T03:13:38;8.33;;;7.33;;
3959;SDS011;1994;48.640;8.894;2022-07-29T03:16:05;9.60;;;7.90;;
3959;SDS011;1994;48.640;8.894;2022-07-29T03:18:31;9.37;;;7.90;;
3959;SDS011;1994;48.640;8.894;2022-07-29T03:20:58;13.87;;;9.47;;
3959;SDS011;1994;48.640;8.894;2022-07-29T03:23:24;8.93;;;7.40;;
3959;SDS011;1994;48.640;8.894;2022-07-29T03:25:56;7.83;;;6.63;;
3959;SDS011;1994;48.640;8.894;2022-07-29T03:28:22;7.23;;;6.00;;
3959;SDS011;1994;48.640;8.894;2022-07-29T03:30:48;7.20;;;5.90;;
3959;SDS011;1994;48.640;8.894;2022-07-29T03:33:15;7.93;;;7.07;;
3959;SDS011;1994;48.640;8.894;2022-07-29T03:35:41;8.37;;;6.17;;
3959;SDS011;1994;48.640;8.894;2022-07-29T03:38:07;7.63;;;6.03;;
3959;SDS011;1994;48.640;8.894;2022-07-29T03:40:33;6.53;;;5.60;;
3959;SDS011;1994;48.640;8.894;2022-07-29T03:43:00;6.20;;;5.27;;
3959;SDS011;1994;48.640;8.894;2022-07-29T03:45:30;5.20;;;4.70;;
3959;SDS011;1994;48.640;8.894;2022-07-29T03:47:59;4.90;;;4.40;;
3959;SDS011;1994;48.640;8.894;2022-07-29T03:50:32;7.33;;;4.03;;
3959;SDS011;1994;48.640;8.894;2022-07-29T03:52:59;6.23;;;4.50;;
3959;SDS011;1994;48.640;8.894;2022-07-29T03:55:26;4.67;;;4.10;;
3959;SDS011;1994;48.640;8.894;2022-07-29T03:57:57;5.20;;;4.43;;
3959;SDS011;1994;48.640;8.894;2022-07-29T04:00:23;6.33;;;4.23;;
3959;SDS011;1994;48.640;8.894;2022-07-29T04:02:50;5.63;;;4.40;;
3959;SDS011;1994;48.640;8.894;2022-07-29T04:05:16;4.97;;;4.33;;
3959;SDS011;1994;48.640;8.894;2022-07-29T04:07:43;5.03;;;4.43;;
3959;SDS011;1994;48.640;8.894;2022-07-29T04:10:10;4.83;;;4.37;;
3959;SDS011;1994;48.640;8.894;2022-07-29T04:12:36;5.67;;;4.43;;
3959;SDS011;1994;48.640;8.894;2022-07-29T04:15:03;6.00;;;5.17;;
3959;SDS011;1994;48.640;8.894;2022-07-29T04:17:29;10.87;;;5.87;;
3959;SDS011;1994;48.640;8.894;2022-07-29T04:19:55;4.93;;;4.43;;
3959;SDS011;1994;48.640;8.894;2022-07-29T04:22:21;7.67;;;6.37;;
3959;SDS011;1994;48.640;8.894;2022-07-29T04:24:46;10.17;;;6.83;;
3959;SDS011;1994;48.640;8.894;2022-07-29T04:27:12;7.20;;;6.00;;
3959;SDS011;1994;48.640;8.894;2022-07-29T04:29:38;9.47;;;6.87;;
3959;SDS011;1994;48.640;8.894;2022-07-29T04:32:04;8.43;;;6.47;;
3959;SDS011;1994;48.640;8.894;2022-07-29T04:34:30;7.87;;;5.83;;
3959;SDS011;1994;48.640;8.894;2022-07-29T04:36:56;10.00;;;6.77;;
3959;SDS011;1994;48.640;8.894;2022-07-29T04:39:24;6.90;;;6.20;;
3959;SDS011;1994;48.640;8.894;2022-07-29T04:41:50;6.73;;;6.10;;
3959;SDS011;1994;48.640;8.894;2022-07-29T04:44:16;8.33;;;6.47;;
3959;SDS011;1994;48.640;8.894;2022-07-29T04:46:42;7.37;;;6.40;;
3959;SDS011;1994;48.640;8.894;2022-07-29T04:49:08;8.60;;;6.20;;
3959;SDS011;1994;48.640;8.894;2022-07-29T04:51:34;8.50;;;7.60;;
3959;SDS011;1994;48.640;8.894;2022-07-29T04:54:00;7.73;;;6.47;;
3959;SDS011;1994;48.640;8.894;2022-07-29T04:56:26;7.53;;;6.83;;
3959;SDS011;1994;48.640;8.894;2022-07-29T04:58:52;11.00;;;7.10;;
3959;SDS011;1994;48.640;8.894;2022-07-29T05:01:18;8.37;;;7.37;;
3959;SDS011;1994;48.640;8.894;2022-07-29T05:03:44;8.17;;;6.13;;
3959;SDS011;1994;48.640;8.894;2022-07-29T05:06:10;10.87;;;7.07;;
3959;SDS011;1994;48.640;8.894;2022-07-29T05:08:36;8.80;;;7.63;;
3959;SDS011;1994;48.640;8.894;2022-07-29T05:11:02;11.23;;;8.57;;
3959;SDS011;1994;48.640;8.894;2022-07-29T05:13:29;8.90;;;6.97;;
3959;SDS011;1994;48.640;8.894;2022-07-29T05:15:55;7.90;;;7.10;;
3959;SDS011;1994;48.640;8.894;2022-07-29T05:18:38;11.53;;;7.60;;
3959;SDS011;1994;48.640;8.894;2022-07-29T05:21:04;10.30;;;7.33;;
3959;SDS011;1994;48.640;8.894;2022-07-29T05:23:29;10.17;;;7.63;;
3959;SDS011;1994;48.640;8.894;2022-07-29T05:25:55;10.03;;;7.83;;
3959;SDS011;1994;48.640;8.894;2022-07-29T05:28:21;8.23;;;6.40;;
3959;SDS011;1994;48.640;8.894;2022-07-29T05:30:47;10.17;;;7.80;;
3959;SDS011;1994;48.640;8.894;2022-07-29T05:33:14;12.50;;;6.87;;
3959;SDS011;1994;48.640;8.894;2022-07-29T05:35:40;9.47;;;6.80;;
3959;SDS011;1994;48.640;8.894;2022-07-29T05:38:06;8.73;;;6.93;;
3959;SDS011;1994;48.640;8.894;2022-07-29T05:40:31;10.33;;;7.40;;
3959;SDS011;1994;48.640;8.894;2022-07-29T05:42:57;9.40;;;7.30;;
3959;SDS011;1994;48.640;8.894;2022-07-29T05:45:23;8.10;;;6.80;;
3959;SDS011;1994;48.640;8.894;2022-07-29T05:47:49;7.50;;;6.63;;
3959;SDS011;1994;48.640;8.894;2022-07-29T05:50:15;7.40;;;6.50;;
3959;SDS011;1994;48.640;8.894;2022-07-29T05:52:40;11.67;;;7.00;;
3959;SDS011;1994;48.640;8.894;2022-07-29T05:55:06;9.23;;;7.07;;
3959;SDS011;1994;48.640;8.894;2022-07-29T05:57:33;12.27;;;7.40;;
3959;SDS011;1994;48.640;8.894;2022-07-29T05:59:58;9.83;;;7.20;;
3959;SDS011;1994;48.640;8.894;2022-07-29T06:02:24;12.13;;;8.27;;
3959;SDS011;1994;48.640;8.894;2022-07-29T06:04:50;13.40;;;8.10;;
3959;SDS011;1994;48.640;8.894;2022-07-29T06:07:16;9.43;;;7.60;;
3959;SDS011;1994;48.640;8.894;2022-07-29T06:09:44;14.07;;;7.80;;
3959;SDS011;1994;48.640;8.894;2022-07-29T06:12:10;15.20;;;9.10;;
3959;SDS011;1994;48.640;8.894;2022-07-29T06:14:36;10.63;;;8.20;;
3959;SDS011;1994;48.640;8.894;2022-07-29T06:17:03;10.03;;;8.73;;
3959;SDS011;1994;48.640;8.894;2022-07-29T06:19:34;8.07;;;7.10;;
3959;SDS011;1994;48.640;8.894;2022-07-29T06:22:01;11.40;;;8.20;;
3959;SDS011;1994;48.640;8.894;2022-07-29T06:24:27;14.63;;;8.10;;
3959;SDS011;1994;48.640;8.894;2022-07-29T06:26:56;21.20;;;10.10;;
3959;SDS011;1994;48.640;8.894;2022-07-29T06:29:24;10.60;;;7.80;;
3959;SDS011;1994;48.640;8.894;2022-07-29T06:31:50;11.80;;;9.13;;
3959;SDS011;1994;48.640;8.894;2022-07-29T06:34:18;12.23;;;8.47;;
3959;SDS011;1994;48.640;8.894;2022-07-29T06:36:44;13.53;;;8.60;;
3959;SDS011;1994;48.640;8.894;2022-07-29T06:39:10;10.33;;;8.33;;
3959;SDS011;1994;48.640;8.894;2022-07-29T06:41:35;13.90;;;8.50;;
3959;SDS011;1994;48.640;8.894;2022-07-29T06:44:01;10.47;;;8.63;;
3959;SDS011;1994;48.640;8.894;2022-07-29T06:46:27;11.13;;;8.93;;
3959;SDS011;1994;48.640;8.894;2022-07-29T06:48:53;11.57;;;8.10;;
3959;SDS011;1994;48.640;8.894;2022-07-29T06:51:20;10.50;;;9.10;;
3959;SDS011;1994;48.640;8.894;2022-07-29T06:53:46;15.60;;;8.87;;
3959;SDS011;1994;48.640;8.894;2022-07-29T06:56:12;13.03;;;9.73;;
3959;SDS011;1994;48.640;8.894;2022-07-29T06:58:40;12.03;;;8.43;;
3959;SDS011;1994;48.640;8.894;2022-07-29T07:01:06;11.70;;;8.50;;
3959;SDS011;1994;48.640;8.894;2022-07-29T07:03:32;11.93;;;8.70;;
3959;SDS011;1994;48.640;8.894;2022-07-29T07:05:58;11.13;;;9.13;;
3959;SDS011;1994;48.640;8.894;2022-07-29T07:08:24;10.20;;;9.20;;
3959;SDS011;1994;48.640;8.894;2022-07-29T07:10:50;10.73;;;8.60;;
3959;SDS011;1994;48.640;8.894;2022-07-29T07:13:17;10.23;;;8.27;;
3959;SDS011;1994;48.640;8.894;2022-07-29T07:15:44;10.93;;;8.60;;
3959;SDS011;1994;48.640;8.894;2022-07-29T07:18:13;11.60;;;8.57;;
3959;SDS011;1994;48.640;8.894;2022-07-29T07:20:40;21.13;;;8.17;;
3959;SDS011;1994;48.640;8.894;2022-07-29T07:23:06;11.60;;;9.80;;
3959;SDS011;1994;48.640;8.894;2022-07-29T07:25:36;11.50;;;9.70;;
3959;SDS011;1994;48.640;8.894;2022-07-29T07:28:02;10.53;;;8.67;;
3959;SDS011;1994;48.640;8.894;2022-07-29T07:30:30;12.53;;;8.47;;
3959;SDS011;1994;48.640;8.894;2022-07-29T07:32:56;11.40;;;8.33;;
3959;SDS011;1994;48.640;8.894;2022-07-29T07:35:22;10.70;;;8.60;;
3959;SDS011;1994;48.640;8.894;2022-07-29T07:37:48;10.70;;;9.27;;
3959;SDS011;1994;48.640;8.894;2022-07-29T07:40:13;12.50;;;8.33;;
3959;SDS011;1994;48.640;8.894;2022-07-29T07:42:41;10.87;;;8.47;;
3959;SDS011;1994;48.640;8.894;2022-07-29T07:45:08;10.23;;;8.73;;
3959;SDS011;1994;48.640;8.894;2022-07-29T07:47:35;12.57;;;9.90;;
3959;SDS011;1994;48.640;8.894;2022-07-29T07:50:03;10.80;;;8.73;;
3959;SDS011;1994;48.640;8.894;2022-07-29T07:52:31;8.77;;;6.80;;
3959;SDS011;1994;48.640;8.894;2022-07-29T07:54:57;8.97;;;8.07;;
3959;SDS011;1994;48.640;8.894;2022-07-29T07:57:23;10.10;;;8.67;;
3959;SDS011;1994;48.640;8.894;2022-07-29T07:59:48;9.60;;;6.97;;
3959;SDS011;1994;48.640;8.894;2022-07-29T08:02:19;9.60;;;7.97;;
3959;SDS011;1994;48.640;8.894;2022-07-29T08:04:48;12.17;;;10.87;;
3959;SDS011;1994;48.640;8.894;2022-07-29T08:07:13;11.37;;;9.20;;
3959;SDS011;1994;48.640;8.894;2022-07-29T08:09:48;9.43;;;7.67;;
3959;SDS011;1994;48.640;8.894;2022-07-29T08:12:14;11.50;;;8.07;;
3959;SDS011;1994;48.640;8.894;2022-07-29T08:14:40;11.30;;;7.30;;
3959;SDS011;1994;48.640;8.894;2022-07-29T08:17:05;9.17;;;7.27;;
3959;SDS011;1994;48.640;8.894;2022-07-29T08:19:31;8.03;;;7.23;;
3959;SDS011;1994;48.640;8.894;2022-07-29T08:21:57;10.70;;;7.20;;
3959;SDS011;1994;48.640;8.894;2022-07-29T08:24:25;10.73;;;7.27;;
3959;SDS011;1994;48.640;8.894;2022-07-29T08:27:12;8.67;;;6.90;;
3959;SDS011;1994;48.640;8.894;2022-07-29T08:29:38;7.50;;;6.43;;
3959;SDS011;1994;48.640;8.894;2022-07-29T08:32:05;7.80;;;7.00;;
3959;SDS011;1994;48.640;8.894;2022-07-29T08:34:53;7.70;;;6.20;;
3959;SDS011;1994;48.640;8.894;2022-07-29T08:37:19;9.13;;;7.00;;
3959;SDS011;1994;48.640;8.894;2022-07-29T08:39:44;6.80;;;6.20;;
3959;SDS011;1994;48.640;8.894;2022-07-29T08:42:10;9.83;;;6.03;;
3959;SDS011;1994;48.640;8.894;2022-07-29T08:44:36;6.80;;;6.10;;
3959;SDS011;1994;48.640;8.894;2022-07-29T08:47:02;6.13;;;5.60;;
3959;SDS011;1994;48.640;8.894;2022-07-29T08:49:29;7.20;;;6.50;;
3959;SDS011;1994;48.640;8.894;2022-07-29T08:51:58;8.40;;;7.60;;
3959;SDS011;1994;48.640;8.894;2022-07-29T08:54:25;9.93;;;6.87;;
3959;SDS011;1994;48.640;8.894;2022-07-29T08:56:56;6.70;;;6.10;;
3959;SDS011;1994;48.640;8.894;2022-07-29T08:59:24;7.20;;;6.60;;
3959;SDS011;1994;48.640;8.894;2022-07-29T09:01:52;7.00;;;6.27;;
3959;SDS011;1994;48.640;8.894;2022-07-29T09:04:19;6.60;;;6.00;;
3959;SDS011;1994;48.640;8.894;2022-07-29T09:06:50;6.93;;;6.23;;
3959;SDS011;1994;48.640;8.894;2022-07-29T09:09:19;7.10;;;6.03;;
3959;SDS011;1994;48.640;8.894;2022-07-29T09:11:45;8.30;;;6.73;;
3959;SDS011;1994;48.640;8.894;2022-07-29T09:14:12;9.23;;;6.83;;
3959;SDS011;1994;48.640;8.894;2022-07-29T09:16:49;7.57;;;6.87;;
3959;SDS011;1994;48.640;8.894;2022-07-29T09:19:22;9.77;;;7.07;;
3959;SDS011;1994;48.640;8.894;2022-07-29T09:21:52;11.13;;;7.60;;
3959;SDS011;1994;48.640;8.894;2022-07-29T09:24:22;7.53;;;6.43;;
3959;SDS011;1994;48.640;8.894;2022-07-29T09:26:50;6.67;;;6.07;;
3959;SDS011;1994;48.640;8.894;2022-07-29T09:29:17;7.87;;;7.07;;
3959;SDS011;1994;48.640;8.894;2022-07-29T09:31:50;8.73;;;7.37;;
3959;SDS011;1994;48.640;8.894;2022-07-29T09:34:22;6.97;;;6.40;;
3959;SDS011;1994;48.640;8.894;2022-07-29T09:36:49;11.17;;;6.50;;
3959;SDS011;1994;48.640;8.894;2022-07-29T09:39:26;8.33;;;7.40;;
3959;SDS011;1994;48.640;8.894;2022-07-29T09:41:56;12.80;;;7.17;;
3959;SDS011;1994;48.640;8.894;2022-07-29T09:44:25;8.70;;;7.40;;
3959;SDS011;1994;48.640;8.894;2022-07-29T09:47:01;7.47;;;6.77;;
3959;SDS011;1994;48.640;8.894;2022-07-29T09:49:53;8.87;;;6.63;;
3959;SDS011;1994;48.640;8.894;2022-07-29T09:52:23;7.57;;;6.77;;
3959;SDS011;1994;48.640;8.894;2022-07-29T09:54:50;8.80;;;6.87;;
3959;SDS011;1994;48.640;8.894;2022-07-29T09:57:24;7.13;;;6.43;;
3959;SDS011;1994;48.640;8.894;2022-07-29T09:59:57;6.73;;;6.13;;
3959;SDS011;1994;48.640;8.894;2022-07-29T10:02:36;7.83;;;7.03;;
3959;SDS011;1994;48.640;8.894;2022-07-29T10:05:04;7.83;;;6.77;;
3959;SDS011;1994;48.640;8.894;2022-07-29T10:07:51;8.87;;;7.10;;
3959;SDS011;1994;48.640;8.894;2022-07-29T10:10:20;10.60;;;6.70;;
3959;SDS011;1994;48.640;8.894;2022-07-29T10:12:54;9.10;;;6.80;;
3959;SDS011;1994;48.640;8.894;2022-07-29T10:15:27;8.50;;;6.70;;
3959;SDS011;1994;48.640;8.894;2022-07-29T10:18:02;12.63;;;5.90;;
3959;SDS011;1994;48.640;8.894;2022-07-29T10:20:28;5.00;;;4.47;;
3959;SDS011;1994;48.640;8.894;2022-07-29T10:22:54;5.03;;;4.53;;
3959;SDS011;1994;48.640;8.894;2022-07-29T10:25:23;5.53;;;4.20;;
3959;SDS011;1994;48.640;8.894;2022-07-29T10:27:49;6.47;;;4.10;;
3959;SDS011;1994;48.640;8.894;2022-07-29T10:30:17;15.53;;;4.40;;
3959;SDS011;1994;48.640;8.894;2022-07-29T10:39:14;10.60;;;5.60;;
3959;SDS011;1994;48.640;8.894;2022-07-29T10:44:32;15.20;;;8.83;;
3959;SDS011;1994;48.640;8.894;2022-07-29T10:46:58;13.17;;;6.83;;
3959;SDS011;1994;48.640;8.894;2022-07-29T10:49:27;11.20;;;4.50;;
3959;SDS011;1994;48.640;8.894;2022-07-29T10:54:39;6.50;;;5.17;;
3959;SDS011;1994;48.640;8.894;2022-07-29T11:05:11;6.77;;;5.90;;
3959;SDS011;1994;48.640;8.894;2022-07-29T11:10:38;12.87;;;6.70;;
3959;SDS011;1994;48.640;8.894;2022-07-29T11:13:05;8.50;;;7.20;;
3959;SDS011;1994;48.640;8.894;2022-07-29T11:15:52;11.03;;;7.80;;
3959;SDS011;1994;48.640;8.894;2022-07-29T11:18:21;8.40;;;7.00;;
3959;SDS011;1994;48.640;8.894;2022-07-29T11:20:50;6.83;;;6.23;;
3959;SDS011;1994;48.640;8.894;2022-07-29T11:23:19;8.20;;;6.70;;
3959;SDS011;1994;48.640;8.894;2022-07-29T11:31:41;8.17;;;6.03;;
3959;SDS011;1994;48.640;8.894;2022-07-29T11:34:17;7.87;;;6.57;;
3959;SDS011;1994;48.640;8.894;2022-07-29T11:39:37;5.70;;;5.20;;
3959;SDS011;1994;48.640;8.894;2022-07-29T11:48:14;6.07;;;4.90;;
3959;SDS011;1994;48.640;8.894;2022-07-29T11:50:41;7.50;;;4.00;;
3959;SDS011;1994;48.640;8.894;2022-07-29T11:53:11;3.80;;;3.50;;
3959;SDS011;1994;48.640;8.894;2022-07-29T11:55:39;5.87;;;4.47;;
3959;SDS011;1994;48.640;8.894;2022-07-29T11:58:05;4.80;;;4.10;;
3959;SDS011;1994;48.640;8.894;2022-07-29T12:00:36;4.70;;;4.33;;
3959;SDS011;1994;48.640;8.894;2022-07-29T12:03:06;6.87;;;4.50;;
3959;SDS011;1994;48.640;8.894;2022-07-29T12:05:37;5.13;;;4.63;;
3959;SDS011;1994;48.640;8.894;2022-07-29T12:08:18;6.93;;;5.00;;
3959;SDS011;1994;48.640;8.894;2022-07-29T12:10:47;5.00;;;3.87;;
3959;SDS011;1994;48.640;8.894;2022-07-29T12:13:16;6.97;;;3.90;;
3959;SDS011;1994;48.640;8.894;2022-07-29T12:15:54;3.63;;;3.33;;
3959;SDS011;1994;48.640;8.894;2022-07-29T12:18:22;3.77;;;3.47;;
3959;SDS011;1994;48.640;8.894;2022-07-29T12:20:48;5.67;;;4.40;;
3959;SDS011;1994;48.640;8.894;2022-07-29T12:23:23;5.47;;;4.97;;
3959;SDS011;1994;48.640;8.894;2022-07-29T12:25:49;4.37;;;3.97;;
3959;SDS011;1994;48.640;8.894;2022-07-29T12:28:15;3.90;;;3.60;;
3959;SDS011;1994;48.640;8.894;2022-07-29T12:30:44;4.50;;;4.10;;
3959;SDS011;1994;48.640;8.894;2022-07-29T12:33:25;6.80;;;3.73;;
3959;SDS011;1994;48.640;8.894;2022-07-29T12:35:59;5.70;;;4.53;;
3959;SDS011;1994;48.640;8.894;2022-07-29T12:38:26;6.87;;;4.13;;
3959;SDS011;1994;48.640;8.894;2022-07-29T12:40:53;5.40;;;4.20;;
3959;SDS011;1994;48.640;8.894;2022-07-29T12:43:20;14.40;;;5.23;;
3959;SDS011;1994;48.640;8.894;2022-07-29T12:45:48;13.80;;;6.40;;
3959;SDS011;1994;48.640;8.894;2022-07-29T12:48:35;13.37;;;7.40;;
3959;SDS011;1994;48.640;8.894;2022-07-29T12:51:03;7.17;;;4.60;;
3959;SDS011;1994;48.640;8.894;2022-07-29T12:53:34;7.50;;;4.70;;
3959;SDS011;1994;48.640;8.894;2022-07-29T12:56:01;12.63;;;5.33;;
3959;SDS011;1994;48.640;8.894;2022-07-29T12:58:33;9.70;;;5.07;;
3959;SDS011;1994;48.640;8.894;2022-07-29T13:01:13;11.77;;;6.03;;
3959;SDS011;1994;48.640;8.894;2022-07-29T13:03:52;9.07;;;5.30;;
3959;SDS011;1994;48.640;8.894;2022-07-29T13:06:27;9.97;;;5.80;;
3959;SDS011;1994;48.640;8.894;2022-07-29T13:08:58;12.50;;;6.20;;
3959;SDS011;1994;48.640;8.894;2022-07-29T13:11:34;9.63;;;5.50;;
3959;SDS011;1994;48.640;8.894;2022-07-29T13:14:03;8.07;;;6.57;;
3959;SDS011;1994;48.640;8.894;2022-07-29T13:16:30;9.57;;;6.90;;
3959;SDS011;1994;48.640;8.894;2022-07-29T13:19:06;8.80;;;6.10;;
3959;SDS011;1994;48.640;8.894;2022-07-29T13:21:37;12.27;;;7.23;;
3959;SDS011;1994;48.640;8.894;2022-07-29T13:24:07;7.80;;;7.00;;
3959;SDS011;1994;48.640;8.894;2022-07-29T13:26:39;10.50;;;6.90;;
3959;SDS011;1994;48.640;8.894;2022-07-29T13:29:05;11.47;;;6.73;;
3959;SDS011;1994;48.640;8.894;2022-07-29T13:31:31;11.47;;;7.80;;
3959;SDS011;1994;48.640;8.894;2022-07-29T13:33:57;11.93;;;7.03;;
3959;SDS011;1994;48.640;8.894;2022-07-29T13:36:23;6.57;;;5.63;;
3959;SDS011;1994;48.640;8.894;2022-07-29T13:38:49;10.30;;;6.40;;
3959;SDS011;1994;48.640;8.894;2022-07-29T13:41:15;8.23;;;6.60;;
3959;SDS011;1994;48.640;8.894;2022-07-29T13:43:40;15.17;;;7.07;;
3959;SDS011;1994;48.640;8.894;2022-07-29T13:46:06;8.10;;;6.90;;
3959;SDS011;1994;48.640;8.894;2022-07-29T13:48:32;6.10;;;5.50;;
3959;SDS011;1994;48.640;8.894;2022-07-29T13:50:57;10.07;;;6.50;;
3959;SDS011;1994;48.640;8.894;2022-07-29T13:53:24;10.77;;;7.00;;
3959;SDS011;1994;48.640;8.894;2022-07-29T13:55:50;8.30;;;6.40;;
3959;SDS011;1994;48.640;8.894;2022-07-29T13:58:16;8.77;;;7.03;;
3959;SDS011;1994;48.640;8.894;2022-07-29T14:00:42;6.50;;;5.90;;
3959;SDS011;1994;48.640;8.894;2022-07-29T14:03:07;7.93;;;6.83;;
3959;SDS011;1994;48.640;8.894;2022-07-29T14:05:35;8.63;;;6.83;;
3959;SDS011;1994;48.640;8.894;2022-07-29T14:08:01;11.93;;;8.10;;
3959;SDS011;1994;48.640;8.894;2022-07-29T14:10:27;10.83;;;7.70;;
3959;SDS011;1994;48.640;8.894;2022-07-29T14:12:53;13.13;;;7.67;;
3959;SDS011;1994;48.640;8.894;2022-07-29T14:15:18;9.80;;;8.80;;
3959;SDS011;1994;48.640;8.894;2022-07-29T14:17:45;8.87;;;7.30;;
3959;SDS011;1994;48.640;8.894;2022-07-29T14:20:10;8.70;;;7.80;;
3959;SDS011;1994;48.640;8.894;2022-07-29T14:22:40;8.93;;;8.03;;
3959;SDS011;1994;48.640;8.894;2022-07-29T14:25:07;8.93;;;6.40;;
3959;SDS011;1994;48.640;8.894;2022-07-29T14:27:33;9.00;;;8.10;;
3959;SDS011;1994;48.640;8.894;2022-07-29T14:29:59;11.57;;;8.40;;
3959;SDS011;1994;48.640;8.894;2022-07-29T14:32:24;8.10;;;7.10;;
3959;SDS011;1994;48.640;8.894;2022-07-29T14:34:50;7.43;;;6.73;;
3959;SDS011;1994;48.640;8.894;2022-07-29T14:37:16;8.17;;;7.37;;
3959;SDS011;1994;48.640;8.894;2022-07-29T14:39:42;10.37;;;7.40;;
3959;SDS011;1994;48.640;8.894;2022-07-29T14:42:07;14.20;;;8.20;;
3959;SDS011;1994;48.640;8.894;2022-07-29T14:44:33;9.27;;;7.20;;
3959;SDS011;1994;48.640;8.894;2022-07-29T14:46:59;14.70;;;7.30;;
3959;SDS011;1994;48.640;8.894;2022-07-29T14:49:28;8.30;;;7.50;;
3959;SDS011;1994;48.640;8.894;2022-07-29T14:51:54;9.17;;;7.57;;
3959;SDS011;1994;48.640;8.894;2022-07-29T14:54:19;11.97;;;8.33;;
3959;SDS011;1994;48.640;8.894;2022-07-29T14:56:45;8.53;;;7.63;;
3959;SDS011;1994;48.640;8.894;2022-07-29T14:59:11;9.53;;;7.03;;
3959;SDS011;1994;48.640;8.894;2022-07-29T15:01:37;14.23;;;7.90;;
3959;SDS011;1994;48.640;8.894;2022-07-29T15:04:03;7.90;;;7.20;;
3959;SDS011;1994;48.640;8.894;2022-07-29T15:06:29;9.80;;;7.97;;
3959;SDS011;1994;48.640;8.894;2022-07-29T15:08:54;8.40;;;7.47;;
3959;SDS011;1994;48.640;8.894;2022-07-29T15:11:20;9.20;;;7.63;;
3959;SDS011;1994;48.640;8.894;2022-07-29T15:13:46;16.80;;;8.53;;
3959;SDS011;1994;48.640;8.894;2022-07-29T15:16:11;8.03;;;7.20;;
3959;SDS011;1994;48.640;8.894;2022-07-29T15:18:37;9.70;;;7.33;;
3959;SDS011;1994;48.640;8.894;2022-07-29T15:21:03;8.67;;;7.50;;
3959;SDS011;1994;48.640;8.894;2022-07-29T15:23:31;9.77;;;8.27;;
3959;SDS011;1994;48.640;8.894;2022-07-29T15:26:01;10.13;;;7.93;;
3959;SDS011;1994;48.640;8.894;2022-07-29T15:28:27;10.90;;;7.40;;
3959;SDS011;1994;48.640;8.894;2022-07-29T15:30:53;8.37;;;7.67;;
3959;SDS011;1994;48.640;8.894;2022-07-29T15:33:22;9.17;;;8.23;;
3959;SDS011;1994;48.640;8.894;2022-07-29T15:35:50;12.10;;;8.30;;
3959;SDS011;1994;48.640;8.894;2022-07-29T15:38:16;8.87;;;8.07;;
3959;SDS011;1994;48.640;8.894;2022-07-29T15:40:42;8.43;;;7.57;;
3959;SDS011;1994;48.640;8.894;2022-07-29T15:43:09;10.27;;;8.70;;
3959;SDS011;1994;48.640;8.894;2022-07-29T15:45:38;8.93;;;8.07;;
3959;SDS011;1994;48.640;8.894;2022-07-29T15:48:06;10.53;;;7.50;;
3959;SDS011;1994;48.640;8.894;2022-07-29T15:50:34;10.27;;;7.67;;
3959;SDS011;1994;48.640;8.894;2022-07-29T15:52:59;9.03;;;8.13;;
3959;SDS011;1994;48.640;8.894;2022-07-29T15:55:25;9.33;;;7.33;;
3959;SDS011;1994;48.640;8.894;2022-07-29T15:57:51;10.90;;;7.73;;
3959;SDS011;1994;48.640;8.894;2022-07-29T16:00:17;11.57;;;8.57;;
3959;SDS011;1994;48.640;8.894;2022-07-29T16:02:43;9.27;;;8.37;;
3959;SDS011;1994;48.640;8.894;2022-07-29T16:05:09;10.13;;;7.67;;
3959;SDS011;1994;48.640;8.894;2022-07-29T16:07:35;9.07;;;8.20;;
3959;SDS011;1994;48.640;8.894;2022-07-29T16:10:01;9.50;;;7.00;;
3959;SDS011;1994;48.640;8.894;2022-07-29T16:12:27;7.70;;;6.87;;